Time;durP1;ratioP1;P1;durP2;ratioP2;P2;SDS_P1;SDS_P2;PMS_P1;PMS_P2;Temp;Humidity;BMP_temperature;BMP_pressure;BME280_temperature;BME280_humidity;BME280_pressure;Samples;Min_cycle;Max_cycle;Signal;HPM_P1;HPM_P2
2022/03/26 00:00:16;;;;;;;210.63;81.68;;;6.30;99.90;;;;;;5053575;28;20091;-63
2022/03/26 00:02:44;;;;;;;202.63;80.55;;;6.30;99.90;;;;;;5053193;28;20489;-62
2022/03/26 00:05:10;;;;;;;202.43;82.68;;;6.20;99.90;;;;;;5053436;28;20044;-61
2022/03/26 00:07:36;;;;;;;203.85;81.53;;;6.10;99.90;;;;;;5053415;28;20449;-62
2022/03/26 00:10:06;;;;;;;205.80;82.97;;;6.20;99.90;;;;;;5053369;28;20132;-61
2022/03/26 00:12:32;;;;;;;199.07;81.53;;;6.40;99.90;;;;;;5053366;28;20088;-61
2022/03/26 00:14:58;;;;;;;204.07;83.70;;;6.50;99.90;;;;;;5053212;28;20087;-61
2022/03/26 00:17:25;;;;;;;212.18;80.80;;;6.10;99.90;;;;;;5052887;28;20145;-61
2022/03/26 00:19:51;;;;;;;193.57;80.20;;;;;;;;;;5053136;28;20090;-63
2022/03/26 00:22:17;;;;;;;;;;;6.10;99.90;;;;;;5053594;28;20080;-61
2022/03/26 00:24:42;;;;;;;186.00;77.93;;;6.10;99.90;;;;;;5053136;28;19990;-61
2022/03/26 00:27:08;;;;;;;187.02;77.13;;;6.10;99.90;;;;;;5053028;28;20136;-61
2022/03/26 00:29:34;;;;;;;188.82;75.95;;;6.30;99.90;;;;;;5052974;28;20044;-61
2022/03/26 00:32:02;;;;;;;209.35;80.53;;;6.10;99.90;;;;;;5052967;28;20048;-62
2022/03/26 00:34:27;;;;;;;200.23;78.93;;;6.20;99.90;;;;;;5052894;28;20048;-61
2022/03/26 00:36:53;;;;;;;204.45;79.07;;;6.00;99.90;;;;;;5052924;28;20131;-61
2022/03/26 00:39:19;;;;;;;197.43;83.32;;;6.10;99.90;;;;;;5052850;28;20182;-61
2022/03/26 00:41:44;;;;;;;214.77;82.85;;;6.10;99.90;;;;;;5052826;28;20048;-60
2022/03/26 00:44:10;;;;;;;198.35;81.60;;;6.00;99.90;;;;;;5052794;28;20048;-61
2022/03/26 00:46:36;;;;;;;194.52;80.25;;;6.40;99.90;;;;;;5052750;28;20048;-63
2022/03/26 00:49:02;;;;;;;212.50;83.45;;;6.10;99.90;;;;;;5051327;28;20061;-62
2022/03/26 00:51:27;;;;;;;203.55;82.18;;;6.10;99.90;;;;;;5052629;28;20060;-61
2022/03/26 00:53:53;;;;;;;198.48;79.82;;;6.30;99.90;;;;;;5052612;28;20091;-61
2022/03/26 00:56:19;;;;;;;214.40;81.90;;;6.00;99.90;;;;;;5051616;28;20127;-61
2022/03/26 00:58:45;;;;;;;188.77;74.63;;;6.20;99.90;;;;;;5052869;28;20123;-61
2022/03/26 01:01:11;;;;;;;175.38;74.68;;;6.00;99.90;;;;;;5051555;28;20633;-61
2022/03/26 01:03:37;;;;;;;178.63;70.90;;;5.80;99.90;;;;;;5052518;28;20366;-61
2022/03/26 01:06:04;;;;;;;157.63;66.55;;;;;;;;;;5052445;28;20041;-61
2022/03/26 01:08:31;;;;;;;153.13;65.93;;;5.60;99.90;;;;;;5052382;28;20044;-61
2022/03/26 01:10:58;;;;;;;180.95;73.57;;;5.30;99.90;;;;;;5052439;28;20049;-62
2022/03/26 01:13:25;;;;;;;184.70;70.78;;;5.50;99.90;;;;;;5052409;28;20045;-61
2022/03/26 01:15:52;;;;;;;174.60;73.03;;;5.50;99.90;;;;;;5052427;28;20528;-61
2022/03/26 01:18:18;;;;;;;196.45;76.05;;;5.50;99.90;;;;;;5052338;28;20076;-61
2022/03/26 01:20:44;;;;;;;184.25;74.82;;;;;;;;;;5052404;28;20084;-61
2022/03/26 01:23:10;;;;;;;185.65;72.93;;;5.40;99.90;;;;;;5052348;28;20072;-61
2022/03/26 01:25:36;;;;;;;198.93;75.57;;;5.30;99.90;;;;;;5052312;28;20052;-60
2022/03/26 01:28:02;;;;;;;187.77;73.97;;;5.10;99.90;;;;;;5051994;28;20382;-61
2022/03/26 01:30:28;;;;;;;184.95;73.22;;;5.60;99.90;;;;;;5055448;28;20110;-61
2022/03/26 01:32:55;;;;;;;177.32;69.10;;;5.10;99.90;;;;;;5056620;28;20084;-61
2022/03/26 01:35:21;;;;;;;161.68;63.95;;;5.10;99.90;;;;;;5055057;28;20260;-61
2022/03/26 01:37:47;;;;;;;152.95;62.25;;;5.30;99.90;;;;;;5056245;28;20071;-64
2022/03/26 01:40:13;;;;;;;114.97;50.90;;;5.20;99.90;;;;;;5056267;28;20132;-61
2022/03/26 01:42:41;;;;;;;134.95;52.75;;;5.20;99.90;;;;;;5056217;28;20044;-61
2022/03/26 01:45:11;;;;;;;136.52;53.25;;;5.00;99.90;;;;;;5056122;28;20056;-64
2022/03/26 01:47:37;;;;;;;124.78;48.13;;;5.00;99.90;;;;;;5056117;28;20059;-62
2022/03/26 01:50:04;;;;;;;109.95;44.60;;;4.90;99.90;;;;;;5056109;28;20052;-61
2022/03/26 01:52:29;;;;;;;403.60;40.90;;;5.00;99.90;;;;;;5055993;28;20045;-61
2022/03/26 01:54:56;;;;;;;284.88;38.65;;;4.80;99.90;;;;;;5055919;28;20045;-61
2022/03/26 01:57:23;;;;;;;;;;;;;;;;;;5055972;28;20559;-63
2022/03/26 01:59:50;;;;;;;840.58;49.55;;;4.70;99.90;;;;;;5055867;28;19971;-61
2022/03/26 02:02:15;;;;;;;;;;;4.50;99.90;;;;;;5056282;28;20052;-61
2022/03/26 02:04:41;;;;;;;449.73;40.90;;;4.50;99.90;;;;;;5055794;28;19924;-61
2022/03/26 02:07:07;;;;;;;506.08;40.72;;;4.40;99.90;;;;;;5055706;28;20135;-62
2022/03/26 02:09:35;;;;;;;330.33;38.03;;;4.40;99.90;;;;;;5054257;28;20144;-62
2022/03/26 02:12:03;;;;;;;525.70;46.75;;;;;;;;;;5055701;28;20045;-60
2022/03/26 02:14:29;;;;;;;525.90;49.63;;;4.20;99.90;;;;;;5037984;28;20451;-61
2022/03/26 02:16:55;;;;;;;509.30;47.80;;;4.20;99.90;;;;;;5055577;28;20057;-61
2022/03/26 02:19:21;;;;;;;290.38;44.88;;;;;;;;;;5055445;28;20052;-61
2022/03/26 02:21:50;;;;;;;740.38;59.20;;;;;;;;;;5055413;28;20045;-61
2022/03/26 02:24:16;;;;;;;723.05;60.90;;;4.50;99.90;;;;;;5055375;28;20044;-61
2022/03/26 02:26:42;;;;;;;675.15;54.42;;;4.60;99.90;;;;;;5055261;28;20075;-61
2022/03/26 02:29:10;;;;;;;569.03;50.95;;;4.60;99.90;;;;;;5055283;28;20380;-62
2022/03/26 02:31:37;;;;;;;303.80;47.50;;;4.50;99.90;;;;;;5055233;28;20128;-61
2022/03/26 02:34:04;;;;;;;476.55;51.13;;;;;;;;;;5055200;28;20190;-61
2022/03/26 02:36:29;;;;;;;;;;;4.30;99.90;;;;;;5055526;28;20056;-61
2022/03/26 02:38:56;;;;;;;140.27;45.63;;;4.20;99.90;;;;;;5055105;28;19925;-61
2022/03/26 02:41:22;;;;;;;118.05;43.10;;;4.00;99.90;;;;;;5054828;28;20127;-61
2022/03/26 02:43:47;;;;;;;97.50;42.28;;;4.20;99.90;;;;;;5055078;28;20468;-62
2022/03/26 02:46:13;;;;;;;147.32;44.25;;;;;;;;;;5054998;28;20440;-61
2022/03/26 02:48:42;;;;;;;81.20;43.38;;;;;;;;;;5054722;28;20060;-61
2022/03/26 02:51:08;;;;;;;163.45;41.53;;;4.30;99.90;;;;;;5054977;28;20063;-63
2022/03/26 02:53:33;;;;;;;119.22;42.92;;;3.80;99.90;;;;;;5054831;28;20045;-61
2022/03/26 02:55:59;;;;;;;807.90;67.15;;;4.00;99.90;;;;;;5053690;28;20045;-61
2022/03/26 02:58:25;;;;;;;226.60;55.50;;;3.90;99.90;;;;;;5054738;28;20504;-61
2022/03/26 03:00:51;;;;;;;459.13;64.45;;;;;;;;;;5054753;28;20068;-61
2022/03/26 03:03:17;;;;;;;238.02;56.08;;;;;;;;;;5054680;28;20060;-61
2022/03/26 03:05:46;;;;;;;424.80;62.10;;;;;;;;;;5054593;28;20045;-62
2022/03/26 03:08:13;;;;;;;1019.22;85.88;;;;;;;;;;5053309;28;20045;-61
2022/03/26 03:10:39;;;;;;;142.25;58.55;;;4.00;99.90;;;;;;5054614;28;20049;-61
2022/03/26 03:13:06;;;;;;;366.13;71.15;;;;;;;;;;5054460;28;20552;-61
2022/03/26 03:15:32;;;;;;;454.23;79.55;;;;;;;;;;5054401;28;20492;-61
2022/03/26 03:17:58;;;;;;;1022.13;85.97;;;;;;;;;;5054155;28;20404;-63
2022/03/26 03:20:25;;;;;;;216.05;71.75;;;;;;;;;;5054232;28;20556;-62
2022/03/26 03:22:51;;;;;;;433.40;73.63;;;;;;;;;;5054304;28;20063;-61
2022/03/26 03:25:18;;;;;;;380.27;71.53;;;;;;;;;;5053897;28;20485;-61
2022/03/26 03:27:43;;;;;;;;;;;4.20;99.90;;;;;;5054593;28;20059;-61
2022/03/26 03:30:10;;;;;;;224.40;57.35;;;;;;;;;;5054196;28;19920;-61
2022/03/26 03:32:36;;;;;;;161.68;60.95;;;3.90;99.90;;;;;;5054187;28;20057;-61
2022/03/26 03:35:03;;;;;;;143.30;56.25;;;;;;;;;;5054058;28;20123;-61
2022/03/26 03:37:29;;;;;;;111.82;53.03;;;4.10;99.90;;;;;;5054047;28;20049;-61
2022/03/26 03:39:55;;;;;;;106.87;50.87;;;;;;;;;;5053956;28;20044;-61
2022/03/26 03:42:21;;;;;;;137.32;48.92;;;3.90;99.90;;;;;;5053943;28;20333;-61
2022/03/26 03:44:46;;;;;;;179.02;47.03;;;3.80;99.90;;;;;;5054155;28;20490;-61
2022/03/26 03:47:12;;;;;;;79.53;43.80;;;;;;;;;;5053771;28;20453;-61
2022/03/26 03:49:38;;;;;;;112.07;51.50;;;3.90;99.90;;;;;;5053606;28;20057;-64
2022/03/26 03:52:04;;;;;;;125.15;54.92;;;4.00;99.90;;;;;;5053157;28;20049;-61
2022/03/26 03:54:30;;;;;;;221.50;59.08;;;;;;;;;;5053677;28;20056;-63
2022/03/26 03:56:56;;;;;;;162.40;61.58;;;3.60;99.90;;;;;;5053656;28;20055;-61
2022/03/26 03:59:22;;;;;;;142.90;57.22;;;3.70;99.90;;;;;;5053594;28;20040;-61
2022/03/26 04:01:47;;;;;;;231.52;61.65;;;3.70;99.90;;;;;;5053589;28;20124;-61
2022/03/26 04:04:13;;;;;;;278.02;61.47;;;3.70;99.90;;;;;;5053521;28;20049;-63
2022/03/26 04:06:39;;;;;;;174.50;58.92;;;3.70;99.90;;;;;;5053432;28;20124;-62
2022/03/26 04:09:04;;;;;;;593.90;68.40;;;3.70;99.90;;;;;;5053443;28;20052;-60
2022/03/26 04:11:30;;;;;;;126.73;53.97;;;;;;;;;;5053424;28;20055;-61
2022/03/26 04:13:56;;;;;;;165.68;55.83;;;3.60;99.90;;;;;;5053229;28;20311;-61
2022/03/26 04:16:23;;;;;;;165.15;55.97;;;2.50;99.90;;;;;;5053331;28;20041;-61
2022/03/26 04:18:50;;;;;;;153.30;56.78;;;;;;;;;;5053245;28;20118;-62
2022/03/26 04:21:15;;;;;;;;;;;;;;;;;;5053595;28;20048;-61
2022/03/26 04:23:42;;;;;;;131.10;54.95;;;3.60;99.90;;;;;;5053153;28;19929;-61
2022/03/26 04:26:08;;;;;;;146.40;58.53;;;4.00;99.90;;;;;;5051874;28;20053;-61
2022/03/26 04:28:34;;;;;;;147.93;57.35;;;3.90;99.90;;;;;;5053019;28;20049;-63
2022/03/26 04:31:00;;;;;;;159.23;61.03;;;;;;;;;;5051770;28;20422;-61
2022/03/26 04:33:27;;;;;;;229.23;71.75;;;3.90;99.90;;;;;;5052980;28;20052;-60
2022/03/26 04:35:52;;;;;;;223.18;70.28;;;4.10;99.90;;;;;;5052983;28;20055;-61
2022/03/26 04:38:18;;;;;;;216.57;70.13;;;4.10;99.90;;;;;;5052903;28;20127;-61
2022/03/26 04:40:44;;;;;;;213.65;68.50;;;4.10;99.90;;;;;;5052597;28;20084;-62
2022/03/26 04:43:10;;;;;;;211.88;68.32;;;;;;;;;;5052538;28;20045;-61
2022/03/26 04:45:36;;;;;;;259.63;80.15;;;4.30;99.90;;;;;;5052737;28;20115;-61
2022/03/26 04:48:01;;;;;;;288.15;84.30;;;4.40;99.90;;;;;;5052694;28;20477;-61
2022/03/26 04:50:27;;;;;;;264.90;81.93;;;4.50;99.90;;;;;;5052792;28;20152;-61
2022/03/26 04:52:53;;;;;;;247.57;78.35;;;4.30;99.90;;;;;;5052654;28;20041;-61
2022/03/26 04:55:19;;;;;;;283.30;82.65;;;4.50;99.90;;;;;;5052583;28;20049;-61
2022/03/26 04:57:51;;;;;;;262.23;83.85;;;4.60;99.90;;;;;;5051301;28;20053;-61
2022/03/26 05:00:19;;;;;;;282.50;82.78;;;4.70;99.90;;;;;;5052642;28;20124;-61
2022/03/26 05:02:45;;;;;;;234.20;78.45;;;;;;;;;;5052211;28;20573;-62
2022/03/26 05:05:12;;;;;;;;;;;4.20;99.90;;;;;;5051096;28;20524;-61
2022/03/26 05:07:47;;;;;;;298.55;83.70;;;4.40;99.90;;;;;;5052495;28;19921;-61
2022/03/26 05:10:19;;;;;;;270.63;80.30;;;4.50;99.90;;;;;;5052466;28;20041;-61
2022/03/26 05:12:46;;;;;;;263.60;79.18;;;;;;;;;;5052436;28;20056;-61
2022/03/26 05:15:12;;;;;;;277.23;79.25;;;4.20;99.90;;;;;;5052405;28;20044;-61
2022/03/26 05:17:38;;;;;;;206.40;69.82;;;;;;;;;;5052383;28;20128;-61
2022/03/26 05:20:05;;;;;;;180.63;63.40;;;4.30;99.90;;;;;;5052050;28;20493;-64
2022/03/26 05:22:32;;;;;;;219.25;71.00;;;4.20;99.90;;;;;;5052061;28;20382;-61
2022/03/26 05:24:58;;;;;;;166.25;63.35;;;4.00;99.90;;;;;;5052328;28;20083;-61
2022/03/26 05:27:23;;;;;;;184.02;66.30;;;4.10;99.90;;;;;;5051993;28;20089;-61
2022/03/26 05:29:49;;;;;;;155.93;59.50;;;4.40;99.90;;;;;;5052527;28;20071;-61
2022/03/26 05:32:16;;;;;;;168.45;57.28;;;4.00;99.90;;;;;;5052308;28;20103;-62
2022/03/26 05:34:42;;;;;;;159.48;54.40;;;3.90;99.90;;;;;;5052432;28;20439;-61
2022/03/26 05:37:08;;;;;;;152.73;57.38;;;;;;;;;;5052173;28;20056;-61
2022/03/26 05:39:34;;;;;;;199.15;65.90;;;;;;;;;;5052137;28;20049;-61
2022/03/26 05:42:00;;;;;;;202.40;66.38;;;4.10;99.90;;;;;;5052151;28;20056;-61
2022/03/26 05:44:26;;;;;;;227.88;71.47;;;4.20;99.90;;;;;;5051872;28;20037;-61
2022/03/26 05:46:52;;;;;;;232.75;71.88;;;4.30;99.90;;;;;;5052121;28;20099;-61
2022/03/26 05:49:19;;;;;;;198.55;64.70;;;;;;;;;;5052038;28;20508;-61
2022/03/26 05:51:45;;;;;;;190.77;64.88;;;;;;;;;;5052036;28;20056;-61
2022/03/26 05:54:10;;;;;;;157.18;56.88;;;4.60;99.90;;;;;;5051980;28;20052;-62
2022/03/26 05:56:36;;;;;;;147.70;54.88;;;4.40;99.90;;;;;;5052095;28;20049;-61
2022/03/26 05:59:09;;;;;;;113.53;47.67;;;3.90;99.90;;;;;;5051974;28;20040;-61
2022/03/26 06:01:36;;;;;;;101.35;45.72;;;4.30;99.90;;;;;;5052032;28;20045;-63
2022/03/26 06:04:01;;;;;;;;;;;4.10;99.90;;;;;;5052412;28;20041;-61
2022/03/26 06:06:27;;;;;;;135.40;50.05;;;;;;;;;;5051973;28;19921;-61
2022/03/26 06:08:53;;;;;;;180.98;61.40;;;4.30;99.90;;;;;;5051913;28;20081;-61
2022/03/26 06:11:19;;;;;;;232.80;65.15;;;;;;;;;;5051877;28;20099;-61
2022/03/26 06:13:45;;;;;;;142.23;56.22;;;4.30;99.90;;;;;;5051873;28;20055;-64
2022/03/26 06:16:11;;;;;;;153.48;56.67;;;;;;;;;;5054334;28;20052;-62
2022/03/26 06:18:38;;;;;;;151.00;57.15;;;4.30;99.90;;;;;;5055496;28;20049;-61
2022/03/26 06:21:05;;;;;;;165.25;56.10;;;4.30;99.90;;;;;;5054402;28;20053;-61
2022/03/26 06:23:32;;;;;;;235.20;68.20;;;;;;;;;;5055452;28;20056;-61
2022/03/26 06:25:58;;;;;;;279.80;77.18;;;4.60;99.90;;;;;;5055348;28;20401;-61
2022/03/26 06:28:24;;;;;;;283.73;76.80;;;4.80;99.90;;;;;;5055322;28;20041;-61
2022/03/26 06:30:51;;;;;;;311.40;82.00;;;;;;;;;;5055380;28;20045;-61
2022/03/26 06:33:18;;;;;;;303.88;82.13;;;5.00;99.90;;;;;;5055290;28;20052;-61
2022/03/26 06:35:44;;;;;;;346.40;87.10;;;;;;;;;;5055192;28;20056;-61
2022/03/26 06:38:10;;;;;;;356.80;87.30;;;5.40;99.90;;;;;;5055134;28;20059;-61
2022/03/26 06:40:37;;;;;;;;;;;5.50;99.90;;;;;;5055616;28;20044;-61
2022/03/26 06:43:03;;;;;;;280.05;76.82;;;5.30;99.90;;;;;;5055129;28;19978;-61
2022/03/26 06:45:29;;;;;;;;;;;5.40;99.90;;;;;;5054228;28;20076;-61
2022/03/26 06:47:55;;;;;;;235.82;74.25;;;5.30;99.90;;;;;;5054972;28;19929;-61
2022/03/26 06:50:21;;;;;;;256.98;75.05;;;;;;;;;;5055190;28;20119;-64
2022/03/26 06:52:46;;;;;;;259.58;78.78;;;5.50;99.90;;;;;;5054905;28;20128;-62
2022/03/26 06:55:12;;;;;;;293.83;85.05;;;5.60;99.90;;;;;;5054747;28;20124;-61
2022/03/26 06:57:38;;;;;;;344.92;90.60;;;5.80;99.90;;;;;;5054855;28;20045;-61
2022/03/26 07:00:05;;;;;;;352.45;90.70;;;6.00;99.90;;;;;;5054789;28;20041;-61
2022/03/26 07:02:31;;;;;;;366.38;93.78;;;6.20;99.90;;;;;;5054762;28;20092;-63
2022/03/26 07:04:57;;;;;;;395.08;100.43;;;6.30;99.90;;;;;;5054648;28;20080;-61
2022/03/26 07:07:23;;;;;;;;;;;6.90;99.90;;;;;;5054885;28;20498;-61
2022/03/26 07:09:48;;;;;;;358.70;95.75;;;7.10;99.90;;;;;;5054645;28;19936;-61
2022/03/26 07:12:14;;;;;;;350.23;96.75;;;7.10;99.90;;;;;;5040168;28;20059;-61
2022/03/26 07:14:40;;;;;;;365.70;98.45;;;7.10;99.90;;;;;;5052231;28;20041;-61
2022/03/26 07:17:06;;;;;;;324.38;97.65;;;7.30;99.90;;;;;;5053313;28;20087;-63
2022/03/26 07:19:32;;;;;;;359.13;99.72;;;7.50;99.90;;;;;;5051693;28;20059;-62
2022/03/26 07:21:57;;;;;;;350.45;97.80;;;7.60;99.90;;;;;;5053018;28;20053;-61
2022/03/26 07:24:23;;;;;;;324.23;95.60;;;7.50;99.90;;;;;;5051287;28;20045;-71
2022/03/26 07:26:49;;;;;;;316.33;94.25;;;7.70;99.90;;;;;;5048490;28;20535;-68
2022/03/26 07:29:14;;;;;;;298.48;91.20;;;7.90;99.90;;;;;;5052802;28;20044;-61
2022/03/26 07:31:40;;;;;;;262.35;88.85;;;8.00;99.90;;;;;;5052505;28;20045;-63
2022/03/26 07:34:06;;;;;;;266.33;85.90;;;8.60;99.90;;;;;;5052251;28;20409;-63
2022/03/26 07:36:32;;;;;;;234.95;83.15;;;8.60;99.90;;;;;;5054102;28;20182;-61
2022/03/26 07:38:58;;;;;;;216.98;78.85;;;8.60;99.90;;;;;;5054067;28;20055;-62
2022/03/26 07:41:24;;;;;;;203.05;72.90;;;9.00;99.90;;;;;;5052713;28;20041;-61
2022/03/26 07:43:50;;;;;;;176.55;71.35;;;9.40;99.90;;;;;;5053965;28;20041;-62
2022/03/26 07:46:18;;;;;;;180.68;72.80;;;9.70;99.90;;;;;;5053884;28;20056;-62
2022/03/26 07:48:45;;;;;;;171.57;69.57;;;9.50;99.90;;;;;;5044878;28;20122;-62
2022/03/26 07:51:11;;;;;;;163.27;66.40;;;9.10;99.90;;;;;;5051206;28;20053;-61
2022/03/26 07:53:36;;;;;;;140.68;63.10;;;9.40;99.90;;;;;;5052383;28;20127;-62
2022/03/26 07:56:02;;;;;;;153.38;64.72;;;9.30;99.90;;;;;;5051637;28;20132;-62
2022/03/26 07:58:28;;;;;;;150.80;67.10;;;9.60;99.90;;;;;;5052550;28;20071;-60
2022/03/26 08:00:54;;;;;;;133.88;61.70;;;9.90;99.90;;;;;;5051055;28;20095;-61
2022/03/26 08:03:19;;;;;;;140.93;61.75;;;9.70;99.90;;;;;;5051836;28;20041;-61
2022/03/26 08:05:45;;;;;;;145.02;62.40;;;9.70;99.90;;;;;;5052228;28;20041;-61
2022/03/26 08:08:11;;;;;;;123.03;57.92;;;10.10;99.90;;;;;;5051862;28;20075;-60
2022/03/26 08:10:37;;;;;;;124.90;57.97;;;9.80;99.90;;;;;;5050457;28;20053;-62
2022/03/26 08:13:03;;;;;;;;;;;10.40;99.90;;;;;;5051277;28;20049;-61
2022/03/26 08:15:29;;;;;;;102.78;50.25;;;10.10;99.90;;;;;;5052069;28;19990;-61
2022/03/26 08:17:55;;;;;;;100.18;51.08;;;9.90;99.90;;;;;;5043488;28;20445;-61
2022/03/26 08:20:20;;;;;;;101.55;50.70;;;9.90;99.90;;;;;;5045694;28;20060;-61
2022/03/26 08:22:46;;;;;;;101.65;51.97;;;10.70;99.90;;;;;;5052355;28;20051;-61
2022/03/26 08:26:19;;;;;;;102.55;52.13;;;10.40;99.90;;;;;;5051616;28;20049;-62
2022/03/26 08:27:57;;;;;;;103.03;52.10;;;10.90;99.90;;;;;;5051375;28;20049;-61
2022/03/26 08:30:23;;;;;;;101.35;50.08;;;10.50;99.90;;;;;;5052609;28;20413;-61
2022/03/26 08:32:48;;;;;;;94.05;48.65;;;10.40;99.90;;;;;;5051691;28;20374;-61
2022/03/26 08:35:15;;;;;;;104.38;50.40;;;11.10;99.90;;;;;;5052549;28;20051;-61
2022/03/26 08:37:40;;;;;;;;;;;10.60;99.90;;;;;;5051981;28;20053;-62
2022/03/26 08:40:07;;;;;;;90.35;47.42;;;10.90;99.90;;;;;;5051530;28;19928;-64
2022/03/26 08:42:33;;;;;;;85.15;46.78;;;11.20;99.90;;;;;;5052907;28;20045;-61
2022/03/26 08:44:58;;;;;;;80.65;43.47;;;11.10;99.90;;;;;;5052510;28;20044;-61
2022/03/26 08:47:24;;;;;;;89.47;47.05;;;11.40;99.90;;;;;;5052845;28;20048;-61
2022/03/26 08:49:50;;;;;;;82.80;44.72;;;11.20;99.90;;;;;;5052399;28;20102;-61
2022/03/26 08:52:17;;;;;;;75.13;40.15;;;11.20;99.90;;;;;;5053012;28;20053;-61
2022/03/26 08:54:42;;;;;;;80.78;41.35;;;11.30;99.90;;;;;;5035086;28;20060;-61
2022/03/26 08:57:08;;;;;;;78.03;41.75;;;11.80;99.90;;;;;;5052773;28;20049;-61
2022/03/26 08:59:34;;;;;;;91.63;45.33;;;11.90;99.90;;;;;;5052680;28;20052;-61
2022/03/26 09:02:00;;;;;;;87.57;45.85;;;11.90;99.90;;;;;;5052410;28;20040;-61
2022/03/26 09:04:25;;;;;;;84.55;44.72;;;11.80;99.90;;;;;;5052620;28;20052;-61
2022/03/26 09:06:51;;;;;;;73.43;41.15;;;11.80;99.90;;;;;;5052603;28;20056;-61
2022/03/26 09:09:17;;;;;;;66.07;36.42;;;11.70;99.90;;;;;;5052537;28;20198;-61
2022/03/26 09:11:43;;;;;;;77.15;39.28;;;12.10;99.90;;;;;;5052541;28;20041;-62
2022/03/26 09:14:11;;;;;;;63.20;33.25;;;12.10;99.90;;;;;;5052503;28;20052;-61
2022/03/26 09:16:36;;;;;;;49.50;28.58;;;12.30;99.90;;;;;;5052169;28;20559;-61
2022/03/26 09:19:02;;;;;;;65.13;34.88;;;12.30;99.90;;;;;;5052483;28;20049;-61
2022/03/26 09:21:28;;;;;;;56.60;32.42;;;13.60;99.90;;;;;;5052739;28;20155;-62
2022/03/26 09:23:54;;;;;;;64.35;35.97;;;13.00;99.90;;;;;;5052439;28;20434;-61
2022/03/26 09:26:20;;;;;;;57.20;33.47;;;12.50;99.90;;;;;;5052385;28;20095;-61
2022/03/26 09:28:45;;;;;;;49.58;27.48;;;12.30;99.90;;;;;;5052346;28;20045;-60
2022/03/26 09:31:11;;;;;;;45.15;26.60;;;13.50;99.90;;;;;;5052412;28;20083;-62
2022/03/26 09:33:37;;;;;;;50.35;29.10;;;13.80;99.90;;;;;;5052148;28;20041;-61
2022/03/26 09:36:03;;;;;;;32.30;20.52;;;13.10;99.90;;;;;;5052286;28;20477;-62
2022/03/26 09:38:28;;;;;;;36.83;20.90;;;12.70;99.90;;;;;;5052257;28;20492;-61
2022/03/26 09:40:54;;;;;;;39.80;23.98;;;12.50;99.90;;;;;;5052254;28;20045;-61
2022/03/26 09:43:22;;;;;;;26.67;15.63;;;12.90;99.90;;;;;;5052255;28;20048;-61
2022/03/26 09:45:47;;;;;;;23.65;12.93;;;12.90;99.90;;;;;;5052206;28;20056;-63
2022/03/26 09:48:13;;;;;;;28.85;15.68;;;14.10;99.90;;;;;;5052245;28;20041;-61
2022/03/26 09:50:41;;;;;;;22.92;12.25;;;12.80;99.90;;;;;;5054030;28;20061;-62
2022/03/26 09:53:11;;;;;;;27.52;11.80;;;13.20;99.90;;;;;;5056064;28;20049;-61
2022/03/26 09:55:39;;;;;;;20.70;10.93;;;13.10;99.90;;;;;;5056103;28;20111;-61
2022/03/26 09:58:05;;;;;;;13.75;8.43;;;12.90;99.90;;;;;;5056040;28;20128;-61
2022/03/26 10:00:30;;;;;;;19.70;10.10;;;13.30;99.90;;;;;;5055728;28;20460;-62
2022/03/26 10:02:56;;;;;;;15.35;10.27;;;13.50;99.90;;;;;;5056032;28;20057;-61
2022/03/26 10:05:31;;;;;;;19.10;10.90;;;13.50;99.90;;;;;;5055999;28;20048;-61
2022/03/26 10:07:58;;;;;;;20.92;12.68;;;13.10;99.90;;;;;;5055968;28;20045;-61
2022/03/26 10:10:24;;;;;;;20.80;12.43;;;13.50;99.90;;;;;;5055498;28;20489;-62
2022/03/26 10:12:51;;;;;;;15.20;8.27;;;14.00;99.90;;;;;;5055766;28;20091;-62
2022/03/26 10:15:18;;;;;;;15.65;8.18;;;13.30;99.90;;;;;;5055634;28;20560;-60
2022/03/26 10:17:43;;;;;;;11.20;6.80;;;13.70;99.90;;;;;;5055604;28;20048;-61
2022/03/26 10:20:13;;;;;;;11.95;7.47;;;13.60;99.90;;;;;;5055670;28;20504;-62
2022/03/26 10:22:40;;;;;;;13.60;7.10;;;13.50;99.90;;;;;;5055598;28;20041;-61
2022/03/26 10:25:22;;;;;;;14.75;8.98;;;14.50;99.90;;;;;;5055474;28;20045;-61
2022/03/26 10:27:56;;;;;;;15.05;8.55;;;13.50;99.90;;;;;;5055490;28;20049;-61
2022/03/26 10:33:27;;;;;;;15.13;7.47;;;13.50;99.90;;;;;;5055382;28;20420;-61
2022/03/26 10:35:56;;;;;;;18.02;9.70;;;13.50;99.90;;;;;;5055376;28;20647;-62
2022/03/26 10:38:33;;;;;;;13.18;7.57;;;13.90;99.90;;;;;;5055300;28;20049;-64
2022/03/26 10:41:00;;;;;;;12.13;8.43;;;14.10;99.90;;;;;;5055248;28;20132;-63
2022/03/26 10:43:27;;;;;;;9.15;5.43;;;13.80;99.90;;;;;;5055122;28;20048;-61
2022/03/26 10:45:55;;;;;;;12.90;5.68;;;13.90;99.90;;;;;;5055158;28;20160;-61
2022/03/26 10:48:32;;;;;;;7.10;5.47;;;13.60;99.90;;;;;;5054994;28;20285;-62
2022/03/26 10:51:05;;;;;;;6.80;4.50;;;13.80;99.90;;;;;;5055112;28;20053;-61
2022/03/26 10:53:36;;;;;;;7.63;4.05;;;14.00;99.90;;;;;;5055043;28;20041;-62
2022/03/26 10:56:03;;;;;;;7.10;4.00;;;13.80;99.90;;;;;;5055006;28;20444;-62
2022/03/26 10:58:33;;;;;;;9.70;3.90;;;13.70;99.90;;;;;;5054894;28;20159;-61
2022/03/26 11:00:59;;;;;;;5.95;4.03;;;13.60;99.90;;;;;;5054789;28;20098;-62
2022/03/26 11:03:25;;;;;;;;;;;14.00;99.90;;;;;;5055273;28;20041;-63
2022/03/26 11:05:55;;;;;;;7.82;4.10;;;13.70;99.90;;;;;;5053620;28;19927;-61
2022/03/26 11:08:23;;;;;;;5.18;3.35;;;14.00;99.90;;;;;;5054958;28;20059;-61
2022/03/26 11:10:50;;;;;;;6.47;3.78;;;13.90;99.90;;;;;;5054696;28;20045;-62
2022/03/26 11:13:19;;;;;;;7.75;4.00;;;14.00;99.90;;;;;;5054607;28;20044;-61
2022/03/26 11:16:02;;;;;;;6.80;4.57;;;13.70;99.90;;;;;;5054499;28;20071;-62
2022/03/26 11:18:50;;;;;;;8.85;4.63;;;13.90;99.90;;;;;;5054624;28;20378;-61
2022/03/26 11:21:19;;;;;;;;;;;14.00;99.90;;;;;;5054964;28;20187;-61
2022/03/26 11:24:11;;;;;;;6.03;3.90;;;14.10;99.90;;;;;;5054353;28;19952;-62
2022/03/26 11:27:03;;;;;;;10.35;4.93;;;13.90;99.90;;;;;;5054421;28;20080;-61
2022/03/26 11:29:37;;;;;;;12.43;5.93;;;13.50;99.90;;;;;;5040586;28;20053;-61
2022/03/26 11:32:15;;;;;;;9.50;5.25;;;13.60;99.90;;;;;;5033730;28;20045;-61
2022/03/26 11:34:41;;;;;;;10.70;5.65;;;13.60;99.90;;;;;;5034194;28;20041;-61
2022/03/26 11:37:11;;;;;;;11.48;6.88;;;13.80;99.90;;;;;;5034305;28;20111;-61
2022/03/26 11:39:46;;;;;;;11.73;7.60;;;13.60;99.90;;;;;;5033923;28;20609;-61
2022/03/26 11:42:12;;;;;;;15.65;9.35;;;13.80;99.90;;;;;;5034204;28;20053;-62
2022/03/26 11:44:45;;;;;;;12.65;8.45;;;13.90;99.90;;;;;;5034148;28;20043;-62
2022/03/26 11:53:12;;;;;;;18.38;10.88;;;13.70;99.90;;;;;;5033988;28;20143;-61
2022/03/26 11:55:41;;;;;;;16.33;10.15;;;14.00;99.90;;;;;;5033972;28;20053;-61
2022/03/26 11:58:20;;;;;;;18.67;10.60;;;13.90;99.90;;;;;;5033832;28;20045;-62
2022/03/26 12:01:15;;;;;;;16.02;9.45;;;14.00;99.90;;;;;;5033800;28;20045;-62
2022/03/26 12:03:43;;;;;;;18.67;9.80;;;13.90;99.90;;;;;;5024839;28;20466;-61
2022/03/26 12:06:36;;;;;;;16.63;9.90;;;13.70;99.90;;;;;;5033708;28;20394;-61
2022/03/26 12:09:02;;;;;;;11.50;6.70;;;14.20;99.90;;;;;;5033388;28;20497;-61
2022/03/26 12:11:32;;;;;;;13.40;8.80;;;13.80;99.90;;;;;;5033695;28;20128;-61
2022/03/26 12:14:05;;;;;;;13.27;7.95;;;14.00;99.90;;;;;;5032980;28;20125;-62
2022/03/26 12:16:49;;;;;;;12.95;8.50;;;13.70;99.90;;;;;;5033570;28;20049;-61
2022/03/26 12:19:46;;;;;;;12.85;7.55;;;13.80;99.90;;;;;;5033460;28;20053;-61
2022/03/26 12:22:23;;;;;;;14.50;9.38;;;13.70;99.90;;;;;;5033421;28;20057;-61
2022/03/26 12:24:50;;;;;;;14.60;8.13;;;14.20;99.90;;;;;;5033628;28;20045;-61
2022/03/26 12:27:17;;;;;;;14.23;8.52;;;13.90;99.90;;;;;;5033417;28;20058;-62
2022/03/26 12:29:43;;;;;;;15.05;8.38;;;14.10;99.90;;;;;;5033298;28;20049;-61
2022/03/26 12:32:09;;;;;;;;;;;15.20;99.90;;;;;;5033908;28;20499;-61
2022/03/26 12:35:02;;;;;;;14.52;7.78;;;13.80;99.90;;;;;;5033053;28;19925;-61
2022/03/26 12:37:28;;;;;;;12.80;7.50;;;13.90;99.90;;;;;;5033256;28;20087;-61
2022/03/26 12:39:55;;;;;;;13.38;6.18;;;13.40;99.90;;;;;;5033122;28;20041;-61
2022/03/26 12:42:22;;;;;;;12.25;7.70;;;13.30;99.90;;;;;;5033083;28;20057;-62
2022/03/26 12:44:48;;;;;;;12.35;7.38;;;13.40;99.90;;;;;;5032860;28;20046;-62
2022/03/26 12:47:23;;;;;;;13.90;7.45;;;13.60;99.90;;;;;;5033104;28;20415;-61
2022/03/26 12:49:50;;;;;;;9.60;5.45;;;13.20;99.90;;;;;;5031438;28;20111;-61
2022/03/26 12:52:19;;;;;;;7.95;5.47;;;13.70;99.90;;;;;;5032668;28;20541;-61
2022/03/26 12:54:55;;;;;;;11.45;5.70;;;13.40;99.90;;;;;;5032805;28;20045;-62
2022/03/26 12:57:21;;;;;;;10.63;6.03;;;13.50;99.90;;;;;;5032855;28;20049;-61